Rhourd El Adra — 7TBS — position and weather

sailwx.info

Track history (hours):
 
Tides and Currents Weather Stations Pressure Air Temp Water Temp Dewpoint Dewpoint Depression Visibility Wind Speed Wind Dir Waves Ship Positions

Rhourd El Adra

Last reported at 2014-Oct-01 22:33 UTC. Time now 2014-Oct-02 00:30 UTC.
Position N 40°58' E 001°26'.

Length 156 m; draft 9.1 m.

Type: Ship (hazmat cat C). MMSI: 605026210.

Date/timePositionNaut miles runAvg speedWind from/ knotsBaromVisibWave heightAir tempDewpointWater temp
2014-Oct-01 22:33N 40°58' E 001°26'1515.1
2014-Oct-01 21:33N 40°50' E 001°43'1515.2
2014-Oct-01 20:33N 40°42' E 001°60'1515.1
2014-Oct-01 19:33N 40°35' E 002°17'1514.8
2014-Oct-01 18:33N 40°27' E 002°34'1515.0
2014-Oct-01 17:33N 40°19' E 002°51'1515.1
2014-Oct-01 16:33N 40°12' E 003°08'2114.8
2014-Oct-01 15:08N 39°59' E 003°30'915.2
2014-Oct-01 14:33N 39°53' E 003°37'1715.2
2014-Oct-01 13:25N 39°39' E 003°52'16515.2
2014-Oct-01 02:32N 37°33' E 006°09'  
2014-Sep-24 17:33N 38°14' E 009°07'1514.8
2014-Sep-24 16:33N 38°22' E 009°23'  
2014-Sep-22 05:25N 40°50' E 014°18'0 0.0
2014-Sep-22 04:31N 40°50' E 014°18'  
Track history (hours):
 
Tides and Currents Weather Stations Pressure Air Temp Water Temp Dewpoint Dewpoint Depression Visibility Wind Speed Wind Dir Waves Ship Positions

Rhourd El Adra

Last reported at 2014-Oct-01 22:33 UTC. Time now 2014-Oct-02 00:30 UTC.
Position N 40°58' E 001°26'.

Length 156 m; draft 9.1 m.

Type: Ship (hazmat cat C). MMSI: 605026210.

Date/timePositionNaut miles runAvg speedWind from/ knotsBaromVisibWave heightAir tempDewpointWater temp
2014-Oct-01 22:33N 40°58' E 001°26'1515.1
2014-Oct-01 21:33N 40°50' E 001°43'1515.2
2014-Oct-01 20:33N 40°42' E 001°60'1515.1
2014-Oct-01 19:33N 40°35' E 002°17'1514.8
2014-Oct-01 18:33N 40°27' E 002°34'1515.0
2014-Oct-01 17:33N 40°19' E 002°51'1515.1
2014-Oct-01 16:33N 40°12' E 003°08'2114.8
2014-Oct-01 15:08N 39°59' E 003°30'915.2
2014-Oct-01 14:33N 39°53' E 003°37'1715.2
2014-Oct-01 13:25N 39°39' E 003°52'16515.2
2014-Oct-01 02:32N 37°33' E 006°09'  
2014-Sep-24 17:33N 38°14' E 009°07'1514.8
2014-Sep-24 16:33N 38°22' E 009°23'  
2014-Sep-22 05:25N 40°50' E 014°18'0 0.0
2014-Sep-22 04:31N 40°50' E 014°18'  

Dump ship's entire track history